PWSweather.com
Personal Weather Stations
Station Observations
ZL1DX1M
Mt. Roskill, Auckland, AK 1041

Mt. RoskillAuckland, AK 1041

Lat: -36.9, Lon: 174.74

Elevation: 54

Station Type:

http://www.sanctuaryweather.co.nz

Latest ConditionsUpdated 4:15:23 PM GMT+12 Thursday, Oct 23, 2014
Currently Today's Max Today's Min Today's Average
Temperature 62.9°F17.2°C 65.3°F18.5°C 56.6°F13.7°C 60.7°F15.9°C
Dew Point 55.6°F13.1°C 58.6°F14.8°C 53.4°F11.9°C 54.9°F12.7°C
Winds 3.4 mph SSE5.5 kmh SSE 4.5 mph SSE7.2 kmh SSE - 1.0 mph 1.6 kmh
Wind Gusts 6.0 mph9.7 kmh 12.0 mph19.3 kmh - -
Humidity 77% 89% 70% 81%
Pressure 29.97 in1014.9 mb 30.13 in1020.3 mb 29.97 in1014.9 mb -
Precipitation - 0.09 in2.3 mm - -
Hour Temp Dew Point Humidity Winds Wind Gusts Pressure Precip Precip Rate Daily Precip Total
04:15 PM 62.9°F17.2°C 55.6°F13.1°C 77% 3.4 mph SSE5.5 kmh SSE 6.0 mph9.7 kmh 29.97 in1014.9 mb 0.00 in0.0 mm 0.00 in/hr0.0 mm/hr 0.09 in2.3 mm
04:00 PM 63.2°F17.3°C 56.2°F13.4°C 78% 4.3 mph WSW6.9 kmh WSW 10.0 mph16.1 kmh 29.97 in1014.9 mb 0.00 in0.0 mm 0.00 in/hr0.0 mm/hr 0.09 in2.3 mm
03:45 PM 63.9°F17.7°C 56.5°F13.6°C 77% 3.7 mph SSW6.0 kmh SSW 6.0 mph9.7 kmh 29.97 in1014.9 mb 0.00 in0.0 mm 0.00 in/hr0.0 mm/hr 0.09 in2.3 mm
03:30 PM 63.1°F17.3°C 56.9°F13.8°C 80% 2.2 mph SE3.5 kmh SE 5.0 mph8.0 kmh 29.98 in1015.2 mb 0.00 in0.0 mm 0.00 in/hr0.0 mm/hr 0.09 in2.3 mm
03:15 PM 62.7°F17.1°C 57.1°F13.9°C 82% 3.4 mph SE5.5 kmh SE 12.0 mph19.3 kmh 29.98 in1015.2 mb 0.00 in0.0 mm 0.00 in/hr0.0 mm/hr 0.09 in2.3 mm
03:00 PM 62.7°F17.1°C 56.8°F13.8°C 81% 4.5 mph SSE7.2 kmh SSE 9.0 mph14.5 kmh 29.99 in1015.6 mb 0.00 in0.0 mm 0.00 in/hr0.0 mm/hr 0.09 in2.3 mm
02:45 PM 64.2°F17.9°C 58.2°F14.6°C 81% 4.2 mph SE6.8 kmh SE 11.0 mph17.7 kmh 29.99 in1015.6 mb 0.00 in0.0 mm 0.00 in/hr0.0 mm/hr 0.09 in2.3 mm
02:30 PM 62.9°F17.2°C 57.7°F14.3°C 83% 1.4 mph ESE2.3 kmh ESE 2.0 mph3.2 kmh 30.00 in1015.9 mb 0.00 in0.0 mm 0.00 in/hr0.0 mm/hr 0.09 in2.3 mm
02:15 PM 62.9°F17.2°C 58.6°F14.8°C 86% 4.1 mph ESE6.6 kmh ESE 7.0 mph11.3 kmh 30.00 in1015.9 mb 0.00 in0.0 mm 0.00 in/hr0.0 mm/hr 0.09 in2.3 mm
02:00 PM 62.6°F17.0°C 58.0°F14.4°C 85% 0.8 mph SW1.3 kmh SW 3.0 mph4.8 kmh 30.01 in1016.3 mb 0.00 in0.0 mm 0.00 in/hr0.0 mm/hr 0.09 in2.3 mm
01:45 PM 62.2°F16.8°C 57.9°F14.4°C 86% Calm Calm -- 30.02 in1016.6 mb 0.01 in0.3 mm 0.04 in/hr1.0 mm/hr 0.09 in2.3 mm
01:30 PM 62.3°F16.8°C 57.0°F13.9°C 83% Calm Calm -- 30.02 in1016.6 mb 0.07 in1.8 mm 0.28 in/hr7.1 mm/hr 0.08 in2.0 mm
01:15 PM 63.9°F17.7°C 56.9°F13.8°C 78% 1.4 mph S2.3 kmh S 3.0 mph4.8 kmh 30.03 in1016.9 mb 0.02 in0.5 mm 0.08 in/hr2.0 mm/hr 0.02 in0.5 mm
01:00 PM 64.3°F17.9°C 56.2°F13.4°C 75% 3.2 mph SW5.1 kmh SW 7.0 mph11.3 kmh 30.03 in1016.9 mb 0.00 in0.0 mm 0.00 in/hr0.0 mm/hr 0.00 in0.0 mm
12:45 PM 64.4°F18.0°C 55.5°F13.1°C 73% 2.0 mph SW3.2 kmh SW 3.0 mph4.8 kmh 30.03 in1016.9 mb 0.00 in0.0 mm 0.00 in/hr0.0 mm/hr 0.00 in0.0 mm
12:30 PM 64.3°F17.9°C 55.5°F13.1°C 73% 1.3 mph SSW2.1 kmh SSW 4.0 mph6.4 kmh 30.04 in1017.3 mb 0.00 in0.0 mm 0.00 in/hr0.0 mm/hr 0.00 in0.0 mm
12:15 PM 65.2°F18.4°C 55.2°F12.9°C 70% 2.0 mph SE3.2 kmh SE 5.0 mph8.0 kmh 30.04 in1017.3 mb 0.00 in0.0 mm 0.00 in/hr0.0 mm/hr 0.00 in0.0 mm
12:00 PM 65.3°F18.5°C 55.7°F13.2°C 71% 0.5 mph SE0.8 kmh SE 1.0 mph1.6 kmh 30.04 in1017.3 mb 0.00 in0.0 mm 0.00 in/hr0.0 mm/hr 0.00 in0.0 mm
11:45 AM 64.6°F18.1°C 56.1°F13.4°C 74% 0.4 mph W0.6 kmh W 4.0 mph6.4 kmh 30.05 in1017.6 mb 0.00 in0.0 mm 0.00 in/hr0.0 mm/hr 0.00 in0.0 mm
11:30 AM 64.4°F18.0°C 55.6°F13.1°C 73% 1.7 mph SSW2.7 kmh SSW 2.0 mph3.2 kmh 30.05 in1017.6 mb 0.00 in0.0 mm 0.00 in/hr0.0 mm/hr 0.00 in0.0 mm
11:15 AM 63.6°F17.6°C 56.2°F13.4°C 77% 1.0 mph S1.6 kmh S 2.0 mph3.2 kmh 30.05 in1017.6 mb 0.00 in0.0 mm 0.00 in/hr0.0 mm/hr 0.00 in0.0 mm
11:00 AM 62.2°F16.8°C 55.6°F13.1°C 79% 2.5 mph SW4.0 kmh SW 4.0 mph6.4 kmh 30.06 in1017.9 mb 0.00 in0.0 mm 0.00 in/hr0.0 mm/hr 0.00 in0.0 mm
10:45 AM 62.0°F16.7°C 55.4°F13.0°C 79% 0.8 mph W1.3 kmh W 2.0 mph3.2 kmh 30.07 in1018.3 mb 0.00 in0.0 mm 0.00 in/hr0.0 mm/hr 0.00 in0.0 mm
10:30 AM 62.5°F16.9°C 54.8°F12.7°C 76% 4.1 mph WSW6.6 kmh WSW 6.0 mph9.7 kmh 30.07 in1018.3 mb 0.00 in0.0 mm 0.00 in/hr0.0 mm/hr 0.00 in0.0 mm
10:15 AM 63.5°F17.5°C 54.7°F12.6°C 73% 0.9 mph WSW1.4 kmh WSW 4.0 mph6.4 kmh 30.07 in1018.3 mb 0.00 in0.0 mm 0.00 in/hr0.0 mm/hr 0.00 in0.0 mm
10:00 AM 64.0°F17.8°C 54.4°F12.4°C 71% 0.5 mph NW0.8 kmh NW -- 30.07 in1018.3 mb 0.00 in0.0 mm 0.00 in/hr0.0 mm/hr 0.00 in0.0 mm
09:45 AM 64.6°F18.1°C 55.4°F13.0°C 72% 0.5 mph SW0.8 kmh SW 4.0 mph6.4 kmh 30.08 in1018.6 mb 0.00 in0.0 mm 0.00 in/hr0.0 mm/hr 0.00 in0.0 mm
09:30 AM 63.9°F17.7°C 55.8°F13.2°C 75% 0.1 mph WSW0.2 kmh WSW 1.0 mph1.6 kmh 30.08 in1018.6 mb 0.00 in0.0 mm 0.00 in/hr0.0 mm/hr 0.00 in0.0 mm
09:15 AM 63.8°F17.7°C 55.0°F12.8°C 73% 0.2 mph W0.3 kmh W 2.0 mph3.2 kmh 30.08 in1018.6 mb 0.00 in0.0 mm 0.00 in/hr0.0 mm/hr 0.00 in0.0 mm
09:00 AM 63.2°F17.3°C 54.4°F12.4°C 73% 0.3 mph WSW0.5 kmh WSW 2.0 mph3.2 kmh 30.09 in1019.0 mb 0.00 in0.0 mm 0.00 in/hr0.0 mm/hr 0.00 in0.0 mm
08:45 AM 62.6°F17.0°C 54.9°F12.7°C 76% 1.2 mph WSW1.9 kmh WSW 4.0 mph6.4 kmh 30.09 in1019.0 mb 0.00 in0.0 mm 0.00 in/hr0.0 mm/hr 0.00 in0.0 mm
08:30 AM 62.5°F16.9°C 54.1°F12.3°C 74% 1.2 mph WNW1.9 kmh WNW 3.0 mph4.8 kmh 30.09 in1019.0 mb 0.00 in0.0 mm 0.00 in/hr0.0 mm/hr 0.00 in0.0 mm
08:15 AM 62.5°F16.9°C 54.4°F12.4°C 75% 0.3 mph SW0.5 kmh SW 1.0 mph1.6 kmh 30.09 in1019.0 mb 0.00 in0.0 mm 0.00 in/hr0.0 mm/hr 0.00 in0.0 mm
08:00 AM 61.0°F16.1°C 54.1°F12.3°C 78% 1.0 mph SW1.6 kmh SW 2.0 mph3.2 kmh 30.09 in1019.0 mb 0.00 in0.0 mm 0.00 in/hr0.0 mm/hr 0.00 in0.0 mm
07:45 AM 59.7°F15.4°C 53.5°F11.9°C 80% 0.1 mph WSW0.2 kmh WSW 1.0 mph1.6 kmh 30.09 in1019.0 mb 0.00 in0.0 mm 0.00 in/hr0.0 mm/hr 0.00 in0.0 mm
07:30 AM 59.2°F15.1°C 53.7°F12.1°C 82% 0.1 mph W0.2 kmh W -- 30.09 in1019.0 mb 0.00 in0.0 mm 0.00 in/hr0.0 mm/hr 0.00 in0.0 mm
07:15 AM 58.6°F14.8°C 53.8°F12.1°C 84% Calm Calm -- 30.09 in1019.0 mb 0.00 in0.0 mm 0.00 in/hr0.0 mm/hr 0.00 in0.0 mm
07:00 AM 57.8°F14.3°C 54.0°F12.2°C 87% Calm Calm -- 30.09 in1019.0 mb 0.00 in0.0 mm 0.00 in/hr0.0 mm/hr 0.00 in0.0 mm
06:45 AM 57.2°F14.0°C 53.7°F12.1°C 88% Calm Calm -- 30.09 in1019.0 mb 0.00 in0.0 mm 0.00 in/hr0.0 mm/hr 0.00 in0.0 mm
06:30 AM 56.9°F13.8°C 53.7°F12.1°C 89% Calm Calm -- 30.09 in1019.0 mb 0.00 in0.0 mm 0.00 in/hr0.0 mm/hr 0.00 in0.0 mm
06:15 AM 56.7°F13.7°C 53.5°F11.9°C 89% Calm Calm 1.0 mph1.6 kmh 30.09 in1019.0 mb 0.00 in0.0 mm 0.00 in/hr0.0 mm/hr 0.00 in0.0 mm
06:00 AM 56.6°F13.7°C 53.4°F11.9°C 89% Calm Calm -- 30.09 in1019.0 mb 0.00 in0.0 mm 0.00 in/hr0.0 mm/hr 0.00 in0.0 mm
05:45 AM 56.6°F13.7°C 53.4°F11.9°C 89% Calm Calm -- 30.09 in1019.0 mb 0.00 in0.0 mm 0.00 in/hr0.0 mm/hr 0.00 in0.0 mm
05:30 AM 56.7°F13.7°C 53.5°F11.9°C 89% Calm Calm -- 30.09 in1019.0 mb 0.00 in0.0 mm 0.00 in/hr0.0 mm/hr 0.00 in0.0 mm
05:15 AM 56.8°F13.8°C 53.6°F12.0°C 89% Calm Calm -- 30.09 in1019.0 mb 0.00 in0.0 mm 0.00 in/hr0.0 mm/hr 0.00 in0.0 mm
05:00 AM 56.9°F13.8°C 53.7°F12.1°C 89% Calm Calm -- 30.09 in1019.0 mb 0.00 in0.0 mm 0.00 in/hr0.0 mm/hr 0.00 in0.0 mm
04:45 AM 56.9°F13.8°C 53.7°F12.1°C 89% 0.4 mph WSW0.6 kmh WSW 1.0 mph1.6 kmh 30.09 in1019.0 mb 0.00 in0.0 mm 0.00 in/hr0.0 mm/hr 0.00 in0.0 mm
04:30 AM 57.0°F13.9°C 53.8°F12.1°C 89% 0.2 mph SW0.3 kmh SW -- 30.09 in1019.0 mb 0.00 in0.0 mm 0.00 in/hr0.0 mm/hr 0.00 in0.0 mm
04:15 AM 57.1°F13.9°C 53.6°F12.0°C 88% 0.4 mph WSW0.6 kmh WSW 1.0 mph1.6 kmh 30.09 in1019.0 mb 0.00 in0.0 mm 0.00 in/hr0.0 mm/hr 0.00 in0.0 mm
04:00 AM 57.2°F14.0°C 53.7°F12.1°C 88% 0.7 mph SW1.1 kmh SW 1.0 mph1.6 kmh 30.09 in1019.0 mb 0.00 in0.0 mm 0.00 in/hr0.0 mm/hr 0.00 in0.0 mm
03:45 AM 57.5°F14.2°C 54.0°F12.2°C 88% 0.7 mph WSW1.1 kmh WSW 2.0 mph3.2 kmh 30.09 in1019.0 mb 0.00 in0.0 mm 0.00 in/hr0.0 mm/hr 0.00 in0.0 mm
03:30 AM 57.8°F14.3°C 54.0°F12.2°C 87% 0.2 mph WSW0.3 kmh WSW 1.0 mph1.6 kmh 30.09 in1019.0 mb 0.00 in0.0 mm 0.00 in/hr0.0 mm/hr 0.00 in0.0 mm
03:15 AM 57.9°F14.4°C 54.1°F12.3°C 87% Calm Calm 2.0 mph3.2 kmh 30.09 in1019.0 mb 0.00 in0.0 mm 0.00 in/hr0.0 mm/hr 0.00 in0.0 mm
03:00 AM 58.0°F14.4°C 53.8°F12.1°C 86% 1.2 mph WSW1.9 kmh WSW 4.0 mph6.4 kmh 30.09 in1019.0 mb 0.00 in0.0 mm 0.00 in/hr0.0 mm/hr 0.00 in0.0 mm
02:45 AM 58.0°F14.4°C 53.8°F12.1°C 86% 1.0 mph WSW1.6 kmh WSW 2.0 mph3.2 kmh 30.10 in1019.3 mb 0.00 in0.0 mm 0.00 in/hr0.0 mm/hr 0.00 in0.0 mm
02:30 AM 58.1°F14.5°C 53.9°F12.2°C 86% Calm Calm -- 30.10 in1019.3 mb 0.00 in0.0 mm 0.00 in/hr0.0 mm/hr 0.00 in0.0 mm
02:15 AM 58.2°F14.6°C 53.7°F12.1°C 85% Calm Calm -- 30.11 in1019.6 mb 0.00 in0.0 mm 0.00 in/hr0.0 mm/hr 0.00 in0.0 mm
02:00 AM 58.3°F14.6°C 53.8°F12.1°C 85% Calm Calm -- 30.11 in1019.6 mb 0.00 in0.0 mm 0.00 in/hr0.0 mm/hr 0.00 in0.0 mm
01:45 AM 58.5°F14.7°C 53.7°F12.1°C 84% Calm Calm -- 30.11 in1019.6 mb 0.00 in0.0 mm 0.00 in/hr0.0 mm/hr 0.00 in0.0 mm
01:30 AM 58.6°F14.8°C 53.5°F11.9°C 83% Calm Calm -- 30.11 in1019.6 mb 0.00 in0.0 mm 0.00 in/hr0.0 mm/hr 0.00 in0.0 mm
01:15 AM 58.7°F14.8°C 53.5°F11.9°C 83% 0.1 mph WNW0.2 kmh WNW 1.0 mph1.6 kmh 30.12 in1020.0 mb 0.00 in0.0 mm 0.00 in/hr0.0 mm/hr 0.00 in0.0 mm
01:00 AM 58.6°F14.8°C 53.5°F11.9°C 83% Calm Calm -- 30.12 in1020.0 mb 0.00 in0.0 mm 0.00 in/hr0.0 mm/hr 0.00 in0.0 mm
12:45 AM 58.7°F14.8°C 53.6°F12.0°C 83% 0.2 mph W0.3 kmh W 1.0 mph1.6 kmh 30.12 in1020.0 mb 0.00 in0.0 mm 0.00 in/hr0.0 mm/hr 0.00 in0.0 mm
12:30 AM 58.7°F14.8°C 53.9°F12.2°C 84% 0.1 mph W0.2 kmh W 2.0 mph3.2 kmh 30.13 in1020.3 mb 0.00 in0.0 mm 0.00 in/hr0.0 mm/hr 0.00 in0.0 mm
12:15 AM 58.8°F14.9°C 54.0°F12.2°C 84% Calm Calm 1.0 mph1.6 kmh 30.13 in1020.3 mb 0.00 in0.0 mm 0.00 in/hr0.0 mm/hr 0.00 in0.0 mm
12:00 AM 58.6°F14.8°C 53.8°F12.1°C 84% 0.3 mph WNW0.5 kmh WNW -- 30.13 in1020.3 mb 0.00 in0.0 mm 0.00 in/hr0.0 mm/hr 0.00 in0.0 mm